Latest Coastal Weather Observations for Hillarys Point Boat Harbour

IDW60701

Issued at 9:53 am WST Tuesday 25 June 2024 (issued every 10 minutes, with the page automatically refreshed every 10 minutes)

About coastal observations | Map of coastal stations | Coastal observations for WA | Marine services | Other Formats
Station Details ID: 009265 Name: HILLARYS BOAT HARBOUR NTC AWS Lat: -31.83 Lon: 115.74 Height: 0.0 m
Data from the previous 72 hours. | See also: Recent months for locations in Western Australia
Date/Time
WST
Wind Sea
Height
m
Swell Vis
km
Cloud Weather Temp
°C
Press
MSL
hPa
Rain since
9am
mm
Dir  Spd
kts
Gust
kts
Height
m
Period
s
Dir
25/09:30am ENE 7 12 - - - - - - - 10.9 1018.0 -
25/09:00am ENE 7 10 - - - - - - - 10.0 1017.9 -
25/08:30am ENE 7 11 - - - - - - - 8.5 1017.9 -
25/08:00am ENE 7 11 - - - - - - - 7.7 1018.0 -
25/07:30am ENE 6 8 - - - - - - - 7.4 1018.0 -
25/07:00am ENE 6 9 - - - - - - - 7.6 1018.1 -
25/06:30am ENE 6 9 - - - - - - - 7.6 1018.1 -
25/06:00am ENE 6 10 - - - - - - - 7.8 1018.0 -
25/05:30am ENE 6 9 - - - - - - - 8.1 1018.3 -
25/05:00am ENE 6 10 - - - - - - - 8.2 1018.4 -
25/04:30am ENE 5 9 - - - - - - - 8.4 1018.5 -
25/04:00am ENE 4 8 - - - - - - - 8.9 1018.6 -
25/03:30am ENE 5 7 - - - - - - - 9.2 1018.9 -
25/03:00am ENE 5 7 - - - - - - - 9.2 1019.3 -
25/02:30am ENE 5 8 - - - - - - - 9.5 1019.5 -
25/02:00am ENE 4 6 - - - - - - - 9.5 1019.8 -
25/01:30am ENE 5 7 - - - - - - - 9.9 1020.0 -
25/01:00am ENE 3 6 - - - - - - - 10.5 1020.1 -
25/12:30am ENE 4 7 - - - - - - - 10.8 1020.6 -
25/12:00am ENE 5 7 - - - - - - - 10.9 1020.9 -
 
Date/Time
WST
Wind Sea
Height
m
Swell Vis
km
Cloud Weather Temp
°C
Press
MSL
hPa
Rain since
9am
mm
Dir  Spd
kts
Gust
kts
Height
m
Period
s
Dir
24/11:30pm ENE 3 5 - - - - - - - 11.1 1021.3 -
24/11:00pm ENE 4 6 - - - - - - - 11.9 1021.6 -
24/10:30pm E 3 6 - - - - - - - 11.9 1021.9 -
24/10:00pm ENE 3 5 - - - - - - - 12.0 1022.1 -
24/09:30pm E 3 5 - - - - - - - 12.4 1022.0 -
24/09:00pm E 3 5 - - - - - - - 13.1 1022.1 -
24/08:30pm E 1 3 - - - - - - - 13.3 1022.3 -
24/08:00pm E 1 3 - - - - - - - 13.6 1022.3 -
24/07:30pm ESE 1 4 - - - - - - - 14.1 1022.3 -
24/07:00pm SE 1 3 - - - - - - - 14.3 1022.1 -
24/06:30pm SE 1 4 - - - - - - - 14.9 1022.1 -
24/06:00pm S 3 7 - - - - - - - 15.9 1022.0 -
24/05:30pm SSW 4 7 - - - - - - - 15.9 1022.1 -
24/05:00pm S 4 10 - - - - - - - 16.0 1022.2 -
24/04:30pm SSW 5 10 - - - - - - - 16.0 1022.3 -
24/04:00pm SSW 5 9 - - - - - - - 16.1 1022.5 -
24/03:30pm SSW 5 9 - - - - - - - 16.1 1022.7 -
24/03:00pm SSW 5 10 - - - - - - - 16.1 1022.7 -
24/02:30pm SSW 5 9 - - - - - - - 16.3 1022.9 -
24/02:00pm SSW 4 7 - - - - - - - 16.6 1023.0 -
24/01:30pm SW 4 6 - - - - - - - 15.8 1023.2 -
24/01:00pm SSW 3 5 - - - - - - - 15.9 1023.4 -
24/12:30pm ESE 2 6 - - - - - - - 16.0 1024.0 -
24/12:00pm SSE 4 8 - - - - - - - 15.7 1024.5 -
24/11:30am SSE 3 7 - - - - - - - 15.6 1025.3 -
24/11:00am SE 3 5 - - - - - - - 14.9 1025.9 -
24/10:30am ENE 2 5 - - - - - - - 14.9 1026.2 -
24/10:00am ENE 4 6 - - - - - - - 13.5 1026.3 -
24/09:30am ENE 4 6 - - - - - - - 12.5 1026.4 -
24/09:00am NE 5 7 - - - - - - - 10.8 1026.3 -
24/08:30am ENE 5 7 - - - - - - - 9.7 1026.2 -
24/08:00am NE 3 6 - - - - - - - 9.0 1026.1 -
24/07:30am ENE 4 6 - - - - - - - 8.2 1026.1 -
24/07:00am ENE 4 6 - - - - - - - 8.1 1025.9 -
24/06:30am N 1 3 - - - - - - - 8.6 1025.9 -
24/06:00am W 1 3 - - - - - - - 8.7 1025.5 -
24/05:30am ENE 4 6 - - - - - - - 8.5 1025.3 -
24/05:00am ENE 2 4 - - - - - - - 8.9 1025.5 -
24/04:30am NE 1 2 - - - - - - - 9.4 1025.6 -
24/04:00am ENE 1 3 - - - - - - - 10.0 1025.8 -
24/03:30am ENE 2 4 - - - - - - - 9.3 1025.9 -
24/03:00am ENE 2 4 - - - - - - - 9.4 1026.1 -
24/02:30am NE 1 1 - - - - - - - 9.5 1026.3 -
24/02:00am ENE 3 4 - - - - - - - 9.9 1026.4 -
24/01:30am E 2 4 - - - - - - - 10.9 1026.4 -
24/01:00am NE 1 3 - - - - - - - 10.7 1026.5 -
24/12:30am CALM 0 2 - - - - - - - 10.9 1026.8 -
24/12:00am ENE 3 4 - - - - - - - 11.3 1026.9 -
 
Date/Time
WST
Wind Sea
Height
m
Swell Vis
km
Cloud Weather Temp
°C
Press
MSL
hPa
Rain since
9am
mm
Dir  Spd
kts
Gust
kts
Height
m
Period
s
Dir
23/11:30pm ENE 2 4 - - - - - - - 12.4 1026.9 -
23/11:00pm ENE 3 5 - - - - - - - 11.9 1026.9 -
23/10:30pm ENE 1 4 - - - - - - - 12.9 1027.1 -
23/10:00pm ESE 1 3 - - - - - - - 12.8 1027.1 -
23/09:30pm SE 1 4 - - - - - - - 13.1 1027.1 -
23/09:00pm ESE 1 7 - - - - - - - 13.5 1027.2 -
23/08:30pm SE 1 5 - - - - - - - 14.0 1027.1 -
23/08:00pm SSE 6 9 - - - - - - - 14.7 1026.9 -
23/07:30pm SSE 5 9 - - - - - - - 15.1 1026.8 -
23/07:00pm SSE 5 8 - - - - - - - 15.4 1026.5 -
23/06:30pm SSE 5 8 - - - - - - - 15.7 1026.3 -
23/06:00pm S 3 8 - - - - - - - 16.2 1026.1 -
23/05:30pm S 3 8 - - - - - - - 16.2 1026.1 -
23/05:00pm S 3 8 - - - - - - - 16.3 1025.9 -
23/04:30pm S 3 6 - - - - - - - 16.4 1026.0 -
23/04:00pm SSW 5 10 - - - - - - - 16.7 1026.0 -
23/03:30pm SSW 4 7 - - - - - - - 16.8 1025.9 -
23/03:00pm S 3 7 - - - - - - - 16.7 1025.6 -
23/02:30pm SSW 4 8 - - - - - - - 16.6 1025.8 -
23/02:00pm S 3 7 - - - - - - - 16.7 1025.9 -
23/01:30pm SSW 5 9 - - - - - - - 16.1 1026.1 -
23/01:00pm S 3 6 - - - - - - - 16.0 1026.3 -
23/12:30pm SSE 4 8 - - - - - - - 15.4 1026.7 -
23/12:00pm SSE 5 9 - - - - - - - 15.5 1026.9 -
23/11:30am SSE 4 8 - - - - - - - 15.7 1027.2 -
23/11:00am SE 2 6 - - - - - - - 15.7 1027.5 -
23/10:30am ENE 3 5 - - - - - - - 15.1 1027.4 -
23/10:00am ENE 5 8 - - - - - - - 14.5 1027.3 -
23/09:30am ENE 5 7 - - - - - - - 13.6 1027.0 -
23/09:00am ENE 3 8 - - - - - - - 13.0 1026.8 -
23/08:30am NE 3 6 - - - - - - - 12.2 1026.4 -
23/08:00am NE 4 7 - - - - - - - 11.3 1026.5 -
23/07:30am NE 5 7 - - - - - - - 10.9 1026.1 -
23/07:00am ENE 4 7 - - - - - - - 10.8 1025.9 -
23/06:30am ENE 6 10 - - - - - - - 10.1 1025.5 -
23/06:00am NE 2 6 - - - - - - - 10.7 1025.2 -
23/05:30am NE 2 4 - - - - - - - 11.7 1025.0 -
23/05:00am ENE 2 4 - - - - - - - 11.8 1024.7 -
23/04:30am NE 3 4 - - - - - - - 12.4 1024.7 -
23/04:00am NNE 3 5 - - - - - - - 13.0 1024.6 -
23/03:30am NNE 4 6 - - - - - - - 13.1 1024.6 -
23/03:00am NNE 2 4 - - - - - - - 13.1 1024.6 -
23/02:30am ENE 3 5 - - - - - - - 13.6 1024.7 -
23/02:00am NE 3 5 - - - - - - - 13.1 1024.8 -
23/01:30am ENE 4 6 - - - - - - - 13.1 1024.7 -
23/01:00am NE 2 5 - - - - - - - 13.6 1024.5 -
23/12:30am ENE 4 8 - - - - - - - 13.9 1024.5 -
23/12:00am ENE 4 6 - - - - - - - 14.1 1024.6 -
 
Date/Time
WST
Wind Sea
Height
m
Swell Vis
km
Cloud Weather Temp
°C
Press
MSL
hPa
Rain since
9am
mm
Dir  Spd
kts
Gust
kts
Height
m
Period
s
Dir
22/11:30pm NNE 3 5 - - - - - - - 14.0 1024.4 -
22/11:00pm ENE 4 7 - - - - - - - 14.4 1024.4 -
22/10:30pm ENE 4 5 - - - - - - - 14.4 1024.4 -
22/10:00pm ENE 3 5 - - - - - - - 14.7 1024.3 -
22/09:30pm NE 3 5 - - - - - - - 14.9 1024.1 -
22/09:00pm ENE 3 5 - - - - - - - 15.1 1023.9 -
22/08:30pm E 2 5 - - - - - - - 15.5 1023.7 -
22/08:00pm ESE 2 7 - - - - - - - 16.0 1023.3 -
22/07:30pm S 5 13 - - - - - - - 16.6 1022.9 -
22/07:00pm SSW 7 13 - - - - - - - 17.1 1022.5 -
22/06:30pm SSW 7 15 - - - - - - - 17.0 1022.2 -
22/06:00pm SSW 8 14 - - - - - - - 17.1 1021.8 -
22/05:30pm SSW 8 18 - - - - - - - 17.2 1021.4 -
22/05:00pm SSW 9 14 - - - - - - - 17.4 1021.2 -
22/04:30pm SSW 9 14 - - - - - - - 17.5 1020.9 -
22/04:00pm SSW 8 15 - - - - - - - 17.5 1020.6 -
22/03:30pm SSW 9 15 - - - - - - - 17.6 1020.2 -
22/03:00pm SSW 9 17 - - - - - - - 17.8 1020.1 -
22/02:30pm SSW 8 14 - - - - - - - 17.3 1020.1 -
22/02:00pm SW 11 18 - - - - - - - 16.8 1020.2 -
22/01:30pm SSW 10 18 - - - - - - - 17.3 1020.0 -
22/01:00pm SSW 12 18 - - - - - - - 17.6 1019.9 -
22/12:30pm SW 13 20 - - - - - - - 18.3 1019.9 -
22/12:00pm SW 12 19 - - - - - - - 18.0 1020.1 -
22/11:30am SW 12 19 - - - - - - - 18.4 1020.3 -
22/11:00am SW 12 18 - - - - - - - 18.1 1020.1 -
22/10:30am SW 13 20 - - - - - - - 18.0 1020.1 -
22/10:00am SW 12 21 - - - - - - - 18.0 1019.9 -

Other formats

Comma delimited format used in spreadsheet applications
http://www.bom.gov.au/fwo/IDW60701/IDW60701.95605.axf

JavaScript Object Notation format (JSON) in row-major order
http://www.bom.gov.au/fwo/IDW60701/IDW60701.95605.json

Data quality

Most of these data are generated automatically and are frequently updated. Quality checks on data are not normally performed. It is possible for incorrect values to appear. Refer to information at About Latest Weather Observations and please check the disclaimer before using these data.